sensor_id;sensor_type;location;lat;lon;timestamp;temperature;humidity
68235;DHT22;55052;52.056;5.296;2023-02-13T00:00:18;9.10;80.90
68235;DHT22;55052;52.056;5.296;2023-02-13T00:02:45;9.20;80.80
68235;DHT22;55052;52.056;5.296;2023-02-13T00:05:12;9.20;80.80
68235;DHT22;55052;52.056;5.296;2023-02-13T00:07:39;9.20;80.80
68235;DHT22;55052;52.056;5.296;2023-02-13T00:10:06;9.20;80.80
68235;DHT22;55052;52.056;5.296;2023-02-13T00:12:34;9.20;80.80
68235;DHT22;55052;52.056;5.296;2023-02-13T00:15:01;9.20;80.80
68235;DHT22;55052;52.056;5.296;2023-02-13T00:17:28;9.10;80.70
68235;DHT22;55052;52.056;5.296;2023-02-13T00:19:55;9.20;80.80
68235;DHT22;55052;52.056;5.296;2023-02-13T00:22:21;9.20;80.80
68235;DHT22;55052;52.056;5.296;2023-02-13T00:24:48;9.20;80.80
68235;DHT22;55052;52.056;5.296;2023-02-13T00:27:15;9.20;80.70
68235;DHT22;55052;52.056;5.296;2023-02-13T00:29:42;9.20;80.80
68235;DHT22;55052;52.056;5.296;2023-02-13T00:32:08;9.10;80.70
68235;DHT22;55052;52.056;5.296;2023-02-13T00:34:35;9.20;80.70
68235;DHT22;55052;52.056;5.296;2023-02-13T00:37:02;9.20;81.50
68235;DHT22;55052;52.056;5.296;2023-02-13T00:39:29;9.10;80.60
68235;DHT22;55052;52.056;5.296;2023-02-13T00:41:56;9.20;80.70
68235;DHT22;55052;52.056;5.296;2023-02-13T00:44:22;9.20;80.60
68235;DHT22;55052;52.056;5.296;2023-02-13T00:46:49;9.20;80.70
68235;DHT22;55052;52.056;5.296;2023-02-13T00:49:16;9.20;80.70
68235;DHT22;55052;52.056;5.296;2023-02-13T00:51:43;9.20;80.70
68235;DHT22;55052;52.056;5.296;2023-02-13T00:54:09;9.20;80.70
68235;DHT22;55052;52.056;5.296;2023-02-13T00:56:36;9.20;80.70
68235;DHT22;55052;52.056;5.296;2023-02-13T00:59:03;9.20;80.70
68235;DHT22;55052;52.056;5.296;2023-02-13T01:01:30;9.20;80.70
68235;DHT22;55052;52.056;5.296;2023-02-13T01:03:57;9.10;80.70
68235;DHT22;55052;52.056;5.296;2023-02-13T01:06:24;9.10;80.60
68235;DHT22;55052;52.056;5.296;2023-02-13T01:08:51;9.10;80.70
68235;DHT22;55052;52.056;5.296;2023-02-13T01:11:17;9.10;80.70
68235;DHT22;55052;52.056;5.296;2023-02-13T01:13:44;9.10;80.70
68235;DHT22;55052;52.056;5.296;2023-02-13T01:16:11;9.10;81.50
68235;DHT22;55052;52.056;5.296;2023-02-13T01:18:41;9.10;80.70
68235;DHT22;55052;52.056;5.296;2023-02-13T01:21:15;9.10;80.70
68235;DHT22;55052;52.056;5.296;2023-02-13T01:23:42;9.10;80.70
68235;DHT22;55052;52.056;5.296;2023-02-13T01:26:15;9.10;80.70
68235;DHT22;55052;52.056;5.296;2023-02-13T01:28:43;9.10;80.70
68235;DHT22;55052;52.056;5.296;2023-02-13T01:31:09;9.10;80.80
68235;DHT22;55052;52.056;5.296;2023-02-13T01:33:37;9.10;80.80
68235;DHT22;55052;52.056;5.296;2023-02-13T01:36:09;9.10;80.80
68235;DHT22;55052;52.056;5.296;2023-02-13T01:38:36;9.10;80.80
68235;DHT22;55052;52.056;5.296;2023-02-13T01:41:03;9.10;80.80
68235;DHT22;55052;52.056;5.296;2023-02-13T01:43:51;9.00;80.80
68235;DHT22;55052;52.056;5.296;2023-02-13T01:46:42;9.10;80.90
68235;DHT22;55052;52.056;5.296;2023-02-13T01:49:21;9.00;80.90
68235;DHT22;55052;52.056;5.296;2023-02-13T01:51:52;9.00;80.90
68235;DHT22;55052;52.056;5.296;2023-02-13T01:54:24;9.00;80.90
68235;DHT22;55052;52.056;5.296;2023-02-13T01:57:06;9.00;80.90
68235;DHT22;55052;52.056;5.296;2023-02-13T01:59:44;9.00;80.90
68235;DHT22;55052;52.056;5.296;2023-02-13T02:02:13;8.90;80.90
68235;DHT22;55052;52.056;5.296;2023-02-13T02:04:41;8.90;81.90
68235;DHT22;55052;52.056;5.296;2023-02-13T02:07:28;8.90;81.00
68235;DHT22;55052;52.056;5.296;2023-02-13T02:10:00;8.90;81.00
68235;DHT22;55052;52.056;5.296;2023-02-13T02:15:03;8.90;81.10
68235;DHT22;55052;52.056;5.296;2023-02-13T02:17:30;9.00;81.20
68235;DHT22;55052;52.056;5.296;2023-02-13T02:25:41;8.90;81.20
68235;DHT22;55052;52.056;5.296;2023-02-13T02:31:17;8.90;81.20
68235;DHT22;55052;52.056;5.296;2023-02-13T02:48:01;8.90;81.30
68235;DHT22;55052;52.056;5.296;2023-02-13T02:53:43;8.90;81.40
68235;DHT22;55052;52.056;5.296;2023-02-13T02:56:15;8.90;81.40
68235;DHT22;55052;52.056;5.296;2023-02-13T02:59:01;8.90;81.50
68235;DHT22;55052;52.056;5.296;2023-02-13T03:01:48;8.90;81.50
68235;DHT22;55052;52.056;5.296;2023-02-13T03:04:46;8.90;81.50
68235;DHT22;55052;52.056;5.296;2023-02-13T03:07:33;8.90;81.50
68235;DHT22;55052;52.056;5.296;2023-02-13T03:10:04;8.90;81.60
68235;DHT22;55052;52.056;5.296;2023-02-13T03:13:10;8.90;81.60
68235;DHT22;55052;52.056;5.296;2023-02-13T03:15:57;8.80;81.50
68235;DHT22;55052;52.056;5.296;2023-02-13T03:18:54;8.80;81.60
68235;DHT22;55052;52.056;5.296;2023-02-13T03:21:58;8.80;81.60
68235;DHT22;55052;52.056;5.296;2023-02-13T03:25:07;8.80;81.70
68235;DHT22;55052;52.056;5.296;2023-02-13T03:27:49;8.80;81.70
68235;DHT22;55052;52.056;5.296;2023-02-13T03:38:51;8.80;81.80
68235;DHT22;55052;52.056;5.296;2023-02-13T03:41:26;8.80;81.80
68235;DHT22;55052;52.056;5.296;2023-02-13T03:46:37;8.80;81.80
68235;DHT22;55052;52.056;5.296;2023-02-13T03:49:07;8.80;81.80
68235;DHT22;55052;52.056;5.296;2023-02-13T03:51:59;8.80;81.80
68235;DHT22;55052;52.056;5.296;2023-02-13T03:57:29;8.80;81.90
68235;DHT22;55052;52.056;5.296;2023-02-13T04:00:16;8.80;81.90
68235;DHT22;55052;52.056;5.296;2023-02-13T04:03:00;8.80;82.00
68235;DHT22;55052;52.056;5.296;2023-02-13T04:05:37;8.80;82.00
68235;DHT22;55052;52.056;5.296;2023-02-13T04:08:04;8.80;82.00
68235;DHT22;55052;52.056;5.296;2023-02-13T04:10:34;8.80;82.00
68235;DHT22;55052;52.056;5.296;2023-02-13T04:13:15;8.80;82.00
68235;DHT22;55052;52.056;5.296;2023-02-13T04:16:11;8.80;82.00
68235;DHT22;55052;52.056;5.296;2023-02-13T04:18:39;8.80;82.10
68235;DHT22;55052;52.056;5.296;2023-02-13T04:21:07;8.80;82.10
68235;DHT22;55052;52.056;5.296;2023-02-13T04:23:34;8.80;82.10
68235;DHT22;55052;52.056;5.296;2023-02-13T04:26:06;8.80;82.10
68235;DHT22;55052;52.056;5.296;2023-02-13T04:28:33;8.80;82.10
68235;DHT22;55052;52.056;5.296;2023-02-13T04:31:00;8.80;82.10
68235;DHT22;55052;52.056;5.296;2023-02-13T04:33:27;8.80;82.10
68235;DHT22;55052;52.056;5.296;2023-02-13T04:35:54;8.80;82.10
68235;DHT22;55052;52.056;5.296;2023-02-13T04:38:22;8.80;82.10
68235;DHT22;55052;52.056;5.296;2023-02-13T04:40:49;8.80;82.10
68235;DHT22;55052;52.056;5.296;2023-02-13T04:43:16;8.80;82.20
68235;DHT22;55052;52.056;5.296;2023-02-13T04:45:42;8.90;82.30
68235;DHT22;55052;52.056;5.296;2023-02-13T04:48:09;8.80;82.20
68235;DHT22;55052;52.056;5.296;2023-02-13T04:50:36;8.80;82.20
68235;DHT22;55052;52.056;5.296;2023-02-13T04:53:02;8.90;82.30
68235;DHT22;55052;52.056;5.296;2023-02-13T04:55:29;8.80;82.30
68235;DHT22;55052;52.056;5.296;2023-02-13T04:57:56;8.90;82.30
68235;DHT22;55052;52.056;5.296;2023-02-13T05:00:25;8.80;82.30
68235;DHT22;55052;52.056;5.296;2023-02-13T05:02:52;8.80;82.30
68235;DHT22;55052;52.056;5.296;2023-02-13T05:05:20;8.80;82.30
68235;DHT22;55052;52.056;5.296;2023-02-13T05:07:46;8.80;82.30
68235;DHT22;55052;52.056;5.296;2023-02-13T05:10:13;8.80;82.40
68235;DHT22;55052;52.056;5.296;2023-02-13T05:12:40;8.80;82.40
68235;DHT22;55052;52.056;5.296;2023-02-13T05:15:07;8.80;82.40
68235;DHT22;55052;52.056;5.296;2023-02-13T05:17:34;8.80;82.40
68235;DHT22;55052;52.056;5.296;2023-02-13T05:20:01;8.80;82.40
68235;DHT22;55052;52.056;5.296;2023-02-13T05:22:27;8.80;82.40
68235;DHT22;55052;52.056;5.296;2023-02-13T05:25:13;8.80;82.50
68235;DHT22;55052;52.056;5.296;2023-02-13T05:27:39;8.80;82.50
68235;DHT22;55052;52.056;5.296;2023-02-13T05:30:06;8.80;82.50
68235;DHT22;55052;52.056;5.296;2023-02-13T05:32:33;8.80;82.60
68235;DHT22;55052;52.056;5.296;2023-02-13T05:35:00;8.80;82.60
68235;DHT22;55052;52.056;5.296;2023-02-13T05:37:30;8.80;82.60
68235;DHT22;55052;52.056;5.296;2023-02-13T05:39:56;8.80;82.60
68235;DHT22;55052;52.056;5.296;2023-02-13T05:42:23;8.80;82.70
68235;DHT22;55052;52.056;5.296;2023-02-13T05:44:50;8.80;82.60
68235;DHT22;55052;52.056;5.296;2023-02-13T05:47:17;8.80;82.60
68235;DHT22;55052;52.056;5.296;2023-02-13T05:49:43;8.80;82.70
68235;DHT22;55052;52.056;5.296;2023-02-13T05:52:10;8.80;82.70
68235;DHT22;55052;52.056;5.296;2023-02-13T05:54:37;8.80;82.70
68235;DHT22;55052;52.056;5.296;2023-02-13T05:57:05;8.80;82.80
68235;DHT22;55052;52.056;5.296;2023-02-13T05:59:31;8.80;82.80
68235;DHT22;55052;52.056;5.296;2023-02-13T06:01:58;8.80;82.80
68235;DHT22;55052;52.056;5.296;2023-02-13T06:04:25;8.80;82.80
68235;DHT22;55052;52.056;5.296;2023-02-13T06:06:52;8.90;83.00
68235;DHT22;55052;52.056;5.296;2023-02-13T06:09:18;8.80;82.90
68235;DHT22;55052;52.056;5.296;2023-02-13T06:11:45;8.90;83.00
68235;DHT22;55052;52.056;5.296;2023-02-13T06:14:12;8.90;83.00
68235;DHT22;55052;52.056;5.296;2023-02-13T06:16:40;8.80;83.00
68235;DHT22;55052;52.056;5.296;2023-02-13T06:19:07;8.80;83.00
68235;DHT22;55052;52.056;5.296;2023-02-13T06:21:33;8.90;83.00
68235;DHT22;55052;52.056;5.296;2023-02-13T06:24:04;8.90;83.10
68235;DHT22;55052;52.056;5.296;2023-02-13T06:26:31;8.90;83.10
68235;DHT22;55052;52.056;5.296;2023-02-13T06:28:58;8.90;83.10
68235;DHT22;55052;52.056;5.296;2023-02-13T06:31:26;8.90;83.20
68235;DHT22;55052;52.056;5.296;2023-02-13T06:33:53;8.90;83.10
68235;DHT22;55052;52.056;5.296;2023-02-13T06:36:19;8.90;83.20
68235;DHT22;55052;52.056;5.296;2023-02-13T06:38:46;8.90;83.20
68235;DHT22;55052;52.056;5.296;2023-02-13T06:41:13;8.90;83.20
68235;DHT22;55052;52.056;5.296;2023-02-13T06:43:40;8.90;83.20
68235;DHT22;55052;52.056;5.296;2023-02-13T06:46:07;8.90;83.20
68235;DHT22;55052;52.056;5.296;2023-02-13T06:48:34;8.90;84.00
68235;DHT22;55052;52.056;5.296;2023-02-13T06:51:01;8.90;83.20
68235;DHT22;55052;52.056;5.296;2023-02-13T06:53:28;8.90;83.20
68235;DHT22;55052;52.056;5.296;2023-02-13T06:55:56;8.80;83.20
68235;DHT22;55052;52.056;5.296;2023-02-13T06:58:24;8.80;83.20
68235;DHT22;55052;52.056;5.296;2023-02-13T07:00:51;8.80;83.20
68235;DHT22;55052;52.056;5.296;2023-02-13T07:03:18;8.80;83.10
68235;DHT22;55052;52.056;5.296;2023-02-13T07:05:45;8.80;83.20
68235;DHT22;55052;52.056;5.296;2023-02-13T07:08:12;8.70;83.10
68235;DHT22;55052;52.056;5.296;2023-02-13T07:10:40;8.70;83.90
68235;DHT22;55052;52.056;5.296;2023-02-13T07:13:08;8.70;83.10
68235;DHT22;55052;52.056;5.296;2023-02-13T07:15:36;8.70;83.10
68235;DHT22;55052;52.056;5.296;2023-02-13T07:18:03;8.60;83.00
68235;DHT22;55052;52.056;5.296;2023-02-13T07:20:31;8.60;83.00
68235;DHT22;55052;52.056;5.296;2023-02-13T07:22:58;8.50;83.00
68235;DHT22;55052;52.056;5.296;2023-02-13T07:25:26;8.50;83.00
68235;DHT22;55052;52.056;5.296;2023-02-13T07:27:53;8.50;83.00
68235;DHT22;55052;52.056;5.296;2023-02-13T07:30:20;8.40;83.00
68235;DHT22;55052;52.056;5.296;2023-02-13T07:32:47;8.40;83.10
68235;DHT22;55052;52.056;5.296;2023-02-13T07:35:14;8.30;83.20
68235;DHT22;55052;52.056;5.296;2023-02-13T07:37:40;8.30;83.20
68235;DHT22;55052;52.056;5.296;2023-02-13T07:40:08;8.30;83.30
68235;DHT22;55052;52.056;5.296;2023-02-13T07:42:34;8.30;83.40
68235;DHT22;55052;52.056;5.296;2023-02-13T07:45:01;8.20;83.40
68235;DHT22;55052;52.056;5.296;2023-02-13T07:47:32;8.20;83.50
68235;DHT22;55052;52.056;5.296;2023-02-13T07:50:00;8.20;83.60
68235;DHT22;55052;52.056;5.296;2023-02-13T07:52:26;8.20;83.80
68235;DHT22;55052;52.056;5.296;2023-02-13T07:54:53;8.10;83.70
68235;DHT22;55052;52.056;5.296;2023-02-13T07:57:20;8.10;83.80
68235;DHT22;55052;52.056;5.296;2023-02-13T07:59:46;8.10;84.00
68235;DHT22;55052;52.056;5.296;2023-02-13T08:02:14;8.10;84.10
68235;DHT22;55052;52.056;5.296;2023-02-13T08:04:42;8.10;84.20
68235;DHT22;55052;52.056;5.296;2023-02-13T08:07:13;8.10;84.30
68235;DHT22;55052;52.056;5.296;2023-02-13T08:09:42;8.10;84.40
68235;DHT22;55052;52.056;5.296;2023-02-13T08:12:28;8.10;84.50
68235;DHT22;55052;52.056;5.296;2023-02-13T08:14:55;8.10;84.50
68235;DHT22;55052;52.056;5.296;2023-02-13T08:17:21;8.10;84.60
68235;DHT22;55052;52.056;5.296;2023-02-13T08:19:48;8.10;84.70
68235;DHT22;55052;52.056;5.296;2023-02-13T08:22:15;8.20;84.80
68235;DHT22;55052;52.056;5.296;2023-02-13T08:24:42;8.20;84.80
68235;DHT22;55052;52.056;5.296;2023-02-13T08:27:13;8.20;84.90
68235;DHT22;55052;52.056;5.296;2023-02-13T08:29:40;8.20;85.10
68235;DHT22;55052;52.056;5.296;2023-02-13T08:32:07;8.20;85.10
68235;DHT22;55052;52.056;5.296;2023-02-13T08:34:34;8.30;85.20
68235;DHT22;55052;52.056;5.296;2023-02-13T08:37:02;8.30;85.30
68235;DHT22;55052;52.056;5.296;2023-02-13T08:39:28;8.30;85.50
68235;DHT22;55052;52.056;5.296;2023-02-13T08:41:55;8.40;85.70
68235;DHT22;55052;52.056;5.296;2023-02-13T08:44:22;8.40;85.80
68235;DHT22;55052;52.056;5.296;2023-02-13T08:46:49;8.50;86.00
68235;DHT22;55052;52.056;5.296;2023-02-13T08:49:16;8.50;86.10
68235;DHT22;55052;52.056;5.296;2023-02-13T08:51:42;8.60;86.30
68235;DHT22;55052;52.056;5.296;2023-02-13T08:54:09;8.60;86.40
68235;DHT22;55052;52.056;5.296;2023-02-13T08:56:36;8.70;86.50
68235;DHT22;55052;52.056;5.296;2023-02-13T08:59:03;8.70;86.70
68235;DHT22;55052;52.056;5.296;2023-02-13T09:01:30;8.80;86.80
68235;DHT22;55052;52.056;5.296;2023-02-13T09:03:56;8.80;87.70
68235;DHT22;55052;52.056;5.296;2023-02-13T09:06:23;8.90;87.00
68235;DHT22;55052;52.056;5.296;2023-02-13T09:08:52;8.90;87.00
68235;DHT22;55052;52.056;5.296;2023-02-13T09:11:19;9.00;87.20
68235;DHT22;55052;52.056;5.296;2023-02-13T09:13:52;9.00;87.20
68235;DHT22;55052;52.056;5.296;2023-02-13T09:16:19;9.10;87.20
68235;DHT22;55052;52.056;5.296;2023-02-13T09:18:47;9.20;87.40
68235;DHT22;55052;52.056;5.296;2023-02-13T09:21:14;9.20;87.40
68235;DHT22;55052;52.056;5.296;2023-02-13T09:23:41;9.30;87.40
68235;DHT22;55052;52.056;5.296;2023-02-13T09:26:11;9.30;87.30
68235;DHT22;55052;52.056;5.296;2023-02-13T09:28:38;9.40;87.30
68235;DHT22;55052;52.056;5.296;2023-02-13T09:31:11;9.40;87.20
68235;DHT22;55052;52.056;5.296;2023-02-13T09:33:38;9.50;87.20
68235;DHT22;55052;52.056;5.296;2023-02-13T09:36:11;9.60;87.10
68235;DHT22;55052;52.056;5.296;2023-02-13T09:38:41;9.60;87.00
68235;DHT22;55052;52.056;5.296;2023-02-13T09:41:18;9.70;86.90
68235;DHT22;55052;52.056;5.296;2023-02-13T09:44:11;9.70;86.70
68235;DHT22;55052;52.056;5.296;2023-02-13T09:46:39;9.80;86.60
68235;DHT22;55052;52.056;5.296;2023-02-13T09:49:28;9.80;86.50
68235;DHT22;55052;52.056;5.296;2023-02-13T09:51:56;9.90;86.50
68235;DHT22;55052;52.056;5.296;2023-02-13T09:54:23;9.90;86.30
68235;DHT22;55052;52.056;5.296;2023-02-13T10:00:03;10.00;86.20
68235;DHT22;55052;52.056;5.296;2023-02-13T10:05:36;10.10;86.10
68235;DHT22;55052;52.056;5.296;2023-02-13T10:14:03;10.20;85.80
68235;DHT22;55052;52.056;5.296;2023-02-13T10:19:33;10.30;85.70
68235;DHT22;55052;52.056;5.296;2023-02-13T10:22:23;10.30;85.50
68235;DHT22;55052;52.056;5.296;2023-02-13T10:25:30;10.40;85.40
68235;DHT22;55052;52.056;5.296;2023-02-13T10:28:09;10.40;85.30
68235;DHT22;55052;52.056;5.296;2023-02-13T10:30:54;10.40;85.10
68235;DHT22;55052;52.056;5.296;2023-02-13T10:33:24;10.50;85.10
68235;DHT22;55052;52.056;5.296;2023-02-13T10:38:22;10.50;84.90
68235;DHT22;55052;52.056;5.296;2023-02-13T10:43:58;10.60;84.70
68235;DHT22;55052;52.056;5.296;2023-02-13T10:46:42;10.60;84.50
68235;DHT22;55052;52.056;5.296;2023-02-13T10:49:28;10.60;84.50
68235;DHT22;55052;52.056;5.296;2023-02-13T10:52:14;10.60;84.10
68235;DHT22;55052;52.056;5.296;2023-02-13T10:54:58;10.70;83.90
68235;DHT22;55052;52.056;5.296;2023-02-13T11:03:28;10.80;83.70
68235;DHT22;55052;52.056;5.296;2023-02-13T11:05:56;10.80;83.30
68235;DHT22;55052;52.056;5.296;2023-02-13T11:08:31;10.80;83.20
68235;DHT22;55052;52.056;5.296;2023-02-13T11:10:59;10.90;83.20
68235;DHT22;55052;52.056;5.296;2023-02-13T11:13:28;10.90;83.10
68235;DHT22;55052;52.056;5.296;2023-02-13T11:16:03;11.00;83.10
68235;DHT22;55052;52.056;5.296;2023-02-13T11:18:37;11.00;83.00
68235;DHT22;55052;52.056;5.296;2023-02-13T11:21:13;11.00;83.00
68235;DHT22;55052;52.056;5.296;2023-02-13T11:23:43;11.00;82.80
68235;DHT22;55052;52.056;5.296;2023-02-13T11:26:15;11.10;82.80
68235;DHT22;55052;52.056;5.296;2023-02-13T11:28:50;11.10;82.70
68235;DHT22;55052;52.056;5.296;2023-02-13T11:31:34;11.10;82.60
68235;DHT22;55052;52.056;5.296;2023-02-13T11:36:52;11.20;82.10
68235;DHT22;55052;52.056;5.296;2023-02-13T11:39:21;11.20;82.00
68235;DHT22;55052;52.056;5.296;2023-02-13T11:41:48;11.20;82.00
68235;DHT22;55052;52.056;5.296;2023-02-13T11:44:25;11.30;81.90
68235;DHT22;55052;52.056;5.296;2023-02-13T11:46:54;11.30;81.90
68235;DHT22;55052;52.056;5.296;2023-02-13T11:49:22;11.40;81.90
68235;DHT22;55052;52.056;5.296;2023-02-13T11:51:54;11.40;81.80
68235;DHT22;55052;52.056;5.296;2023-02-13T11:54:44;11.40;81.50
68235;DHT22;55052;52.056;5.296;2023-02-13T11:59:43;11.40;81.60
68235;DHT22;55052;52.056;5.296;2023-02-13T12:04:52;11.50;81.40
68235;DHT22;55052;52.056;5.296;2023-02-13T12:07:24;11.50;81.50
68235;DHT22;55052;52.056;5.296;2023-02-13T12:10:01;11.50;81.20
68235;DHT22;55052;52.056;5.296;2023-02-13T12:12:39;11.60;81.20
68235;DHT22;55052;52.056;5.296;2023-02-13T12:15:25;11.60;81.10
68235;DHT22;55052;52.056;5.296;2023-02-13T12:23:45;11.70;80.80
68235;DHT22;55052;52.056;5.296;2023-02-13T12:26:41;11.70;80.80
68235;DHT22;55052;52.056;5.296;2023-02-13T12:32:29;11.80;80.60
68235;DHT22;55052;52.056;5.296;2023-02-13T12:37:54;11.90;80.70
68235;DHT22;55052;52.056;5.296;2023-02-13T12:46:26;11.90;80.20
68235;DHT22;55052;52.056;5.296;2023-02-13T12:51:42;11.90;80.20
68235;DHT22;55052;52.056;5.296;2023-02-13T12:57:10;12.00;80.20
68235;DHT22;55052;52.056;5.296;2023-02-13T13:20:40;12.20;78.60
68235;DHT22;55052;52.056;5.296;2023-02-13T13:25:59;12.20;78.60
68235;DHT22;55052;52.056;5.296;2023-02-13T13:28:34;12.30;78.70
68235;DHT22;55052;52.056;5.296;2023-02-13T13:31:03;12.30;78.40
68235;DHT22;55052;52.056;5.296;2023-02-13T13:33:32;12.30;78.30
68235;DHT22;55052;52.056;5.296;2023-02-13T13:36:04;12.40;78.40
68235;DHT22;55052;52.056;5.296;2023-02-13T13:38:40;12.40;78.30
68235;DHT22;55052;52.056;5.296;2023-02-13T13:41:29;12.40;78.00
68235;DHT22;55052;52.056;5.296;2023-02-13T13:46:47;12.50;77.90
68235;DHT22;55052;52.056;5.296;2023-02-13T13:49:55;12.50;77.50
68235;DHT22;55052;52.056;5.296;2023-02-13T13:52:35;12.60;77.10
68235;DHT22;55052;52.056;5.296;2023-02-13T13:55:05;12.60;76.90
68235;DHT22;55052;52.056;5.296;2023-02-13T13:57:59;12.60;76.90
68235;DHT22;55052;52.056;5.296;2023-02-13T14:00:28;12.60;76.70
68235;DHT22;55052;52.056;5.296;2023-02-13T14:05:30;12.70;76.90
68235;DHT22;55052;52.056;5.296;2023-02-13T14:07:58;12.70;76.60
68235;DHT22;55052;52.056;5.296;2023-02-13T14:36:29;12.90;75.60
68235;DHT22;55052;52.056;5.296;2023-02-13T14:44:45;12.90;75.50
68235;DHT22;55052;52.056;5.296;2023-02-13T14:49:58;13.00;75.70
68235;DHT22;55052;52.056;5.296;2023-02-13T14:52:33;13.00;75.80
68235;DHT22;55052;52.056;5.296;2023-02-13T14:55:07;13.00;76.70
68235;DHT22;55052;52.056;5.296;2023-02-13T14:57:48;13.00;75.80
68235;DHT22;55052;52.056;5.296;2023-02-13T15:00:32;13.10;75.90
68235;DHT22;55052;52.056;5.296;2023-02-13T15:03:23;13.10;75.90
68235;DHT22;55052;52.056;5.296;2023-02-13T15:05:53;13.20;75.80
68235;DHT22;55052;52.056;5.296;2023-02-13T15:08:25;13.20;75.70
68235;DHT22;55052;52.056;5.296;2023-02-13T15:10:52;13.20;75.70
68235;DHT22;55052;52.056;5.296;2023-02-13T15:13:32;13.20;75.30
68235;DHT22;55052;52.056;5.296;2023-02-13T15:16:08;13.20;75.60
68235;DHT22;55052;52.056;5.296;2023-02-13T15:19:03;13.20;75.80
68235;DHT22;55052;52.056;5.296;2023-02-13T15:21:30;13.40;76.00
68235;DHT22;55052;52.056;5.296;2023-02-13T15:23:59;13.60;77.40
68235;DHT22;55052;52.056;5.296;2023-02-13T15:26:26;13.80;76.20
68235;DHT22;55052;52.056;5.296;2023-02-13T15:29:16;14.00;76.20
68235;DHT22;55052;52.056;5.296;2023-02-13T15:31:55;14.20;76.40
68235;DHT22;55052;52.056;5.296;2023-02-13T15:34:31;14.30;76.40
68235;DHT22;55052;52.056;5.296;2023-02-13T15:37:00;14.40;75.40
68235;DHT22;55052;52.056;5.296;2023-02-13T15:39:29;14.40;75.20
68235;DHT22;55052;52.056;5.296;2023-02-13T15:41:58;14.40;74.80
68235;DHT22;55052;52.056;5.296;2023-02-13T15:44:30;14.40;74.70
68235;DHT22;55052;52.056;5.296;2023-02-13T15:47:22;14.30;75.00
68235;DHT22;55052;52.056;5.296;2023-02-13T15:49:52;14.30;74.40
68235;DHT22;55052;52.056;5.296;2023-02-13T15:54:58;14.10;73.60
68235;DHT22;55052;52.056;5.296;2023-02-13T15:57:25;14.00;73.60
68235;DHT22;55052;52.056;5.296;2023-02-13T15:59:57;13.90;73.50
68235;DHT22;55052;52.056;5.296;2023-02-13T16:02:44;13.90;73.60
68235;DHT22;55052;52.056;5.296;2023-02-13T16:05:13;13.80;73.60
68235;DHT22;55052;52.056;5.296;2023-02-13T16:07:53;13.70;73.90
68235;DHT22;55052;52.056;5.296;2023-02-13T16:10:26;13.70;73.90
68235;DHT22;55052;52.056;5.296;2023-02-13T16:12:55;13.60;74.10
68235;DHT22;55052;52.056;5.296;2023-02-13T16:15:22;13.60;74.10
68235;DHT22;55052;52.056;5.296;2023-02-13T16:17:53;13.50;74.10
68235;DHT22;55052;52.056;5.296;2023-02-13T16:20:26;13.40;74.10
68235;DHT22;55052;52.056;5.296;2023-02-13T16:22:56;13.40;74.20
68235;DHT22;55052;52.056;5.296;2023-02-13T16:25:27;13.30;74.30
68235;DHT22;55052;52.056;5.296;2023-02-13T16:28:02;13.20;74.30
68235;DHT22;55052;52.056;5.296;2023-02-13T16:30:33;13.10;74.40
68235;DHT22;55052;52.056;5.296;2023-02-13T16:35:56;13.00;74.40
68235;DHT22;55052;52.056;5.296;2023-02-13T16:38:32;12.90;74.50
68235;DHT22;55052;52.056;5.296;2023-02-13T16:48:42;12.50;74.80
68235;DHT22;55052;52.056;5.296;2023-02-13T16:51:10;12.50;75.00
68235;DHT22;55052;52.056;5.296;2023-02-13T16:53:37;12.40;75.00
68235;DHT22;55052;52.056;5.296;2023-02-13T16:56:06;12.30;75.10
68235;DHT22;55052;52.056;5.296;2023-02-13T16:58:34;12.20;75.10
68235;DHT22;55052;52.056;5.296;2023-02-13T17:01:03;12.10;75.20
68235;DHT22;55052;52.056;5.296;2023-02-13T17:03:33;12.00;75.30
68235;DHT22;55052;52.056;5.296;2023-02-13T17:06:01;11.90;75.40
68235;DHT22;55052;52.056;5.296;2023-02-13T17:08:29;11.80;75.50
68235;DHT22;55052;52.056;5.296;2023-02-13T17:11:03;11.70;75.50
68235;DHT22;55052;52.056;5.296;2023-02-13T17:13:30;11.60;75.50
68235;DHT22;55052;52.056;5.296;2023-02-13T17:15:57;11.50;76.50
68235;DHT22;55052;52.056;5.296;2023-02-13T17:18:26;11.40;75.70
68235;DHT22;55052;52.056;5.296;2023-02-13T17:20:53;11.30;75.80
68235;DHT22;55052;52.056;5.296;2023-02-13T17:23:22;11.20;76.80
68235;DHT22;55052;52.056;5.296;2023-02-13T17:25:50;11.10;76.10
68235;DHT22;55052;52.056;5.296;2023-02-13T17:28:26;11.00;76.10
68235;DHT22;55052;52.056;5.296;2023-02-13T17:30:56;10.90;76.20
68235;DHT22;55052;52.056;5.296;2023-02-13T17:33:29;10.80;76.40
68235;DHT22;55052;52.056;5.296;2023-02-13T17:35:57;10.70;76.50
68235;DHT22;55052;52.056;5.296;2023-02-13T17:38:24;10.60;76.60
68235;DHT22;55052;52.056;5.296;2023-02-13T17:40:50;10.60;76.80
68235;DHT22;55052;52.056;5.296;2023-02-13T17:43:18;10.50;76.90
68235;DHT22;55052;52.056;5.296;2023-02-13T17:45:46;10.40;77.00
68235;DHT22;55052;52.056;5.296;2023-02-13T17:48:13;10.30;77.00
68235;DHT22;55052;52.056;5.296;2023-02-13T17:50:40;10.30;77.20
68235;DHT22;55052;52.056;5.296;2023-02-13T17:53:19;10.10;77.20
68235;DHT22;55052;52.056;5.296;2023-02-13T17:55:46;10.10;77.40
68235;DHT22;55052;52.056;5.296;2023-02-13T17:58:13;10.00;77.50
68235;DHT22;55052;52.056;5.296;2023-02-13T18:00:40;9.90;77.60
68235;DHT22;55052;52.056;5.296;2023-02-13T18:03:07;9.90;77.70
68235;DHT22;55052;52.056;5.296;2023-02-13T18:05:34;9.80;77.80
68235;DHT22;55052;52.056;5.296;2023-02-13T18:08:00;9.70;77.90
68235;DHT22;55052;52.056;5.296;2023-02-13T18:10:33;9.70;78.00
68235;DHT22;55052;52.056;5.296;2023-02-13T18:13:01;9.60;78.10
68235;DHT22;55052;52.056;5.296;2023-02-13T18:15:39;9.50;78.20
68235;DHT22;55052;52.056;5.296;2023-02-13T18:18:06;9.50;78.20
68235;DHT22;55052;52.056;5.296;2023-02-13T18:20:33;9.40;78.40
68235;DHT22;55052;52.056;5.296;2023-02-13T18:23:00;9.30;78.40
68235;DHT22;55052;52.056;5.296;2023-02-13T18:25:27;9.30;78.50
68235;DHT22;55052;52.056;5.296;2023-02-13T18:27:54;9.20;78.60
68235;DHT22;55052;52.056;5.296;2023-02-13T18:30:21;9.20;78.70
68235;DHT22;55052;52.056;5.296;2023-02-13T18:32:52;9.10;78.70
68235;DHT22;55052;52.056;5.296;2023-02-13T18:35:21;9.10;78.90
68235;DHT22;55052;52.056;5.296;2023-02-13T18:37:48;9.00;78.90
68235;DHT22;55052;52.056;5.296;2023-02-13T18:40:15;8.90;79.00
68235;DHT22;55052;52.056;5.296;2023-02-13T18:42:43;8.90;79.00
68235;DHT22;55052;52.056;5.296;2023-02-13T18:45:10;8.80;79.10
68235;DHT22;55052;52.056;5.296;2023-02-13T18:47:38;8.70;79.10
68235;DHT22;55052;52.056;5.296;2023-02-13T18:50:05;8.70;79.20
68235;DHT22;55052;52.056;5.296;2023-02-13T18:52:33;8.60;79.30
68235;DHT22;55052;52.056;5.296;2023-02-13T18:55:00;8.50;79.30
68235;DHT22;55052;52.056;5.296;2023-02-13T18:57:27;8.50;79.50
68235;DHT22;55052;52.056;5.296;2023-02-13T18:59:54;8.40;79.50
68235;DHT22;55052;52.056;5.296;2023-02-13T19:02:20;8.30;79.50